Steelton, PA

12:05 AM EST on January 30, 2015 (GMT -0500)
Capital City | Change Station
CLOSE
Current Station
Airport
Location: Harrisburg,
Elevation: 344 ft
Nearby Weather Stations

Elev 344 ft 40.22 °N, 76.86 °W | Updated 9 minutes ago

Overcast
Overcast
29 °F
Feels Like 29 °F
N
0
Wind Variable Wind from North

Today
High -- | Low -- °F
--% Chance of Precip.
Yesterday
High -- | Low -- °F
Precip. -- in
7:18 AM 5:23 PM
Waxing Gibbous, 80% visible
Pressure 29.95 in
Visibility 9.0 miles
Clouds Mostly Cloudy 3400 ft
Overcast 6000 ft
Dew Point 25 °F
Humidity 85%
Rainfall 0.00 in
Snow Depth Not available.
UV 0 out of 12
Pollen .10 out of 12
Air Quality Not available.
Flu Activity Not available.
METAR KCXY 300456Z AUTO 00000KT 9SM BKN034 OVC060 M02/M04 A2993 RMK AO2 SNE13 SLP141 P0000 T10171039 400001167

More Conditions Fewer Conditions

Pressure 29.95 in
Visibility 9.0 miles
Clouds Mostly Cloudy 3400 ft
Overcast 6000 ft
Dew Point 25 °F
Humidity 85%
Rainfall 0.00 in
Snow Depth Not available.
UV 0 out of 12
Pollen .10 out of 12
Air Quality Not available.
Flu Activity Not available.
METAR KCXY 300456Z AUTO 00000KT 9SM BKN034 OVC060 M02/M04 A2993 RMK AO2 SNE13 SLP141 P0000 T10171039 400001167

More Conditions Fewer Conditions

Nowcast | as of 11:03 PM EST on January 29, 2015

Pockets of mainly light snow will continue across the region through 1 am. Sleet and or pockets of freezing drizzle will mix with the snow at times. Little additional snow accumulation is expected during this time...but persons traveling late tonight should be alert for poor travel conditions and allow extra time to reach your destination.

×

10-Day Weather Forecast

Almanac

Astronomy

Jan. 30, 2015 Rise Set
Actual Time
Civil Twilight
Nautical Twilight
Astronomical Twilight
Moon
Length of Visible Light
Length of Day
Tomorrow will be .
, % of the Moon is Illuminated

Today's Extremes

State Highs State Lows

Community

WunderPhotos

Upload Photos

1,791,714 photos uploaded!

WunderBlogs® & News

Nearby

Air Quality

  Air Quality AQ Index Pollutant
Not available.

Snow Depth

Station Depth Elevation

Earthquake Activity

City Distance Mag. Time & Date
Minimum magnitude displayed is 2.5.

Coastal Water Temperatures

Place Temperature

Nearby Weather Stations